Time,TemperatureF,DewpointF,PressureIn,WindDirection,WindDirectionDegrees,WindSpeedMPH,WindSpeedGustMPH,Humidity,HourlyPrecipIn,Conditions,Clouds,dailyrainin,SoftwareType,DateUTC
2013-02-12 00:05:00,41.2,41.0,29.55,ESE,107,2.0,8.0,98,0.02,,,0.01,weatherlink.com 1.10,2013-02-11 23:05:00,
2013-02-12 00:20:00,41.1,41.0,29.56,ESE,116,1.0,6.0,98,0.16,,,0.15,weatherlink.com 1.10,2013-02-11 23:20:00,
2013-02-12 00:35:00,41.1,41.0,29.55,SE,136,4.0,9.0,98,0.17,,,0.16,weatherlink.com 1.10,2013-02-11 23:35:00,
2013-02-12 00:50:00,41.4,41.0,29.56,SSE,166,6.0,11.0,98,0.19,,,0.19,weatherlink.com 1.10,2013-02-11 23:50:00,
2013-02-12 01:05:00,41.1,41.0,29.56,ENE,68,3.0,13.0,98,0.23,,,0.24,weatherlink.com 1.10,2013-02-12 00:05:00,
2013-02-12 01:20:00,40.9,40.0,29.56,East,80,6.0,8.0,98,0.11,,,0.26,weatherlink.com 1.10,2013-02-12 00:20:00,
2013-02-12 01:35:00,40.8,40.0,29.56,SE,132,2.0,6.0,98,0.10,,,0.26,weatherlink.com 1.10,2013-02-12 00:35:00,
2013-02-12 01:50:00,40.8,40.0,29.56,ESE,116,1.0,8.0,98,0.06,,,0.26,weatherlink.com 1.10,2013-02-12 00:50:00,
2013-02-12 02:05:00,40.9,40.0,29.56,East,101,4.0,4.0,98,0.02,,,0.26,weatherlink.com 1.10,2013-02-12 01:05:00,
2013-02-12 02:20:00,41.0,41.0,29.56,East,93,5.0,9.0,98,0.00,,,0.26,weatherlink.com 1.10,2013-02-12 01:20:00,
2013-02-12 02:35:00,41.3,41.0,29.56,SSW,197,0.0,4.0,98,0.01,,,0.27,weatherlink.com 1.10,2013-02-12 01:35:00,
2013-02-12 02:50:00,41.3,41.0,29.56,East,82,2.0,7.0,98,0.02,,,0.28,weatherlink.com 1.10,2013-02-12 01:50:00,
2013-02-12 03:05:00,41.2,41.0,29.56,SW,214,0.0,8.0,98,0.03,,,0.29,weatherlink.com 1.10,2013-02-12 02:05:00,
2013-02-12 03:20:00,41.0,41.0,29.56,SE,138,0.0,8.0,98,0.06,,,0.31,weatherlink.com 1.10,2013-02-12 02:20:00,
2013-02-12 03:35:00,41.2,41.0,29.56,SE,124,1.0,7.0,98,0.05,,,0.31,weatherlink.com 1.10,2013-02-12 02:35:00,
2013-02-12 03:50:00,41.0,41.0,29.56,East,79,2.0,6.0,98,0.04,,,0.31,weatherlink.com 1.10,2013-02-12 02:50:00,
2013-02-12 04:05:00,40.8,40.0,29.55,ESE,105,2.0,4.0,98,0.02,,,0.31,weatherlink.com 1.10,2013-02-12 03:05:00,
2013-02-12 04:20:00,40.7,40.0,29.55,East,82,3.0,6.0,98,0.00,,,0.31,weatherlink.com 1.10,2013-02-12 03:20:00,
2013-02-12 04:35:00,40.7,40.0,29.55,East,86,2.0,6.0,98,0.00,,,0.31,weatherlink.com 1.10,2013-02-12 03:35:00,
2013-02-12 04:50:00,40.7,40.0,29.55,East,98,3.0,4.0,98,0.00,,,0.31,weatherlink.com 1.10,2013-02-12 03:50:00,
2013-02-12 05:05:00,40.7,40.0,29.55,East,100,0.0,6.0,98,0.00,,,0.31,weatherlink.com 1.10,2013-02-12 04:05:00,
2013-02-12 05:20:00,40.8,40.0,29.56,ENE,67,0.0,1.0,98,0.00,,,0.31,weatherlink.com 1.10,2013-02-12 04:20:00,
2013-02-12 05:35:00,40.8,40.0,29.56,East,79,1.0,2.0,98,0.00,,,0.31,weatherlink.com 1.10,2013-02-12 04:35:00,
2013-02-12 05:50:00,40.7,40.0,29.56,NE,51,2.0,2.0,98,0.00,,,0.31,weatherlink.com 1.10,2013-02-12 04:50:00,
2013-02-12 06:05:00,40.4,40.0,29.56,ENE,65,2.0,3.0,98,0.00,,,0.31,weatherlink.com 1.10,2013-02-12 05:05:00,
2013-02-12 06:20:00,40.4,40.0,29.56,NE,51,2.0,4.0,98,0.00,,,0.31,weatherlink.com 1.10,2013-02-12 05:20:00,
2013-02-12 06:35:00,40.1,40.0,29.57,NE,49,2.0,3.0,98,0.00,,,0.31,weatherlink.com 1.10,2013-02-12 05:35:00,
2013-02-12 06:50:00,40.0,40.0,29.57,NE,49,3.0,6.0,98,0.00,,,0.31,weatherlink.com 1.10,2013-02-12 05:50:00,
2013-02-12 07:05:00,40.1,40.0,29.57,NE,46,4.0,4.0,98,0.00,,,0.31,weatherlink.com 1.10,2013-02-12 06:05:00,
2013-02-12 07:20:00,39.8,39.0,29.58,ENE,58,2.0,4.0,98,0.00,,,0.31,weatherlink.com 1.10,2013-02-12 06:20:00,
2013-02-12 07:35:00,39.6,39.0,29.58,NE,56,3.0,4.0,98,0.00,,,0.31,weatherlink.com 1.10,2013-02-12 06:35:00,
2013-02-12 07:50:00,39.9,39.0,29.58,NE,51,4.0,6.0,98,0.00,,,0.31,weatherlink.com 1.10,2013-02-12 06:50:00,
2013-02-12 08:05:00,40.3,40.0,29.59,ENE,65,2.0,5.0,98,0.00,,,0.31,weatherlink.com 1.10,2013-02-12 07:05:00,
2013-02-12 08:20:00,40.4,40.0,29.59,ENE,58,3.0,3.0,98,0.00,,,0.31,weatherlink.com 1.10,2013-02-12 07:20:00,
2013-02-12 08:35:00,40.7,40.0,29.59,ENE,65,1.0,6.0,98,0.00,,,0.31,weatherlink.com 1.10,2013-02-12 07:35:00,
2013-02-12 08:50:00,41.0,41.0,29.60,ENE,63,5.0,6.0,98,0.00,,,0.31,weatherlink.com 1.10,2013-02-12 07:50:00,
2013-02-12 09:05:00,41.4,41.0,29.60,ENE,67,0.0,6.0,98,0.00,,,0.31,weatherlink.com 1.10,2013-02-12 08:05:00,
2013-02-12 09:20:00,41.7,41.0,29.60,East,82,2.0,5.0,98,0.00,,,0.31,weatherlink.com 1.10,2013-02-12 08:20:00,
2013-02-12 09:35:00,41.9,41.0,29.60,NE,49,2.0,6.0,98,0.00,,,0.31,weatherlink.com 1.10,2013-02-12 08:35:00,
2013-02-12 09:50:00,42.2,41.0,29.60,ENE,62,2.0,7.0,97,0.00,,,0.31,weatherlink.com 1.10,2013-02-12 08:50:00,
2013-02-12 10:05:00,42.7,42.0,29.60,ENE,58,2.0,5.0,97,0.00,,,0.31,weatherlink.com 1.10,2013-02-12 09:05:00,
2013-02-12 10:20:00,43.1,42.0,29.60,ENE,60,4.0,5.0,97,0.00,,,0.31,weatherlink.com 1.10,2013-02-12 09:20:00,
2013-02-12 10:35:00,43.2,42.0,29.60,East,86,6.0,10.0,94,0.00,,,0.31,weatherlink.com 1.10,2013-02-12 09:35:00,
2013-02-12 10:50:00,43.1,41.0,29.61,East,98,1.0,7.0,93,0.00,,,0.31,weatherlink.com 1.10,2013-02-12 09:50:00,
2013-02-12 11:05:00,43.5,41.0,29.61,East,93,4.0,11.0,92,0.00,,,0.31,weatherlink.com 1.10,2013-02-12 10:05:00,
2013-02-12 11:20:00,43.9,41.0,29.62,ESE,109,7.0,9.0,89,0.00,,,0.31,weatherlink.com 1.10,2013-02-12 10:20:00,
2013-02-12 11:35:00,44.3,41.0,29.62,ESE,116,7.0,9.0,89,0.00,,,0.31,weatherlink.com 1.10,2013-02-12 10:35:00,
2013-02-12 11:51:00,44.9,42.0,29.62,ENE,71,5.0,7.0,88,0.00,,,0.31,weatherlink.com 1.10,2013-02-12 10:51:00,
2013-02-12 12:06:00,45.0,42.0,29.62,ESE,121,1.0,8.0,88,0.00,,,0.31,weatherlink.com 1.10,2013-02-12 11:06:00,
2013-02-12 12:21:00,45.5,42.0,29.62,East,100,6.0,10.0,88,0.00,,,0.31,weatherlink.com 1.10,2013-02-12 11:21:00,
2013-02-12 12:36:00,45.4,42.0,29.62,ESE,108,5.0,9.0,86,0.00,,,0.31,weatherlink.com 1.10,2013-02-12 11:36:00,
2013-02-12 12:51:00,45.3,41.0,29.61,SE,142,3.0,9.0,85,0.00,,,0.31,weatherlink.com 1.10,2013-02-12 11:51:00,
2013-02-12 13:06:00,45.7,41.0,29.62,ESE,121,7.0,13.0,84,0.00,,,0.31,weatherlink.com 1.10,2013-02-12 12:06:00,
2013-02-12 13:21:00,45.7,41.0,29.61,SE,124,4.0,12.0,84,0.00,,,0.31,weatherlink.com 1.10,2013-02-12 12:21:00,
2013-02-12 13:36:00,47.2,42.0,29.61,SSE,158,3.0,9.0,81,0.00,,,0.31,weatherlink.com 1.10,2013-02-12 12:36:00,
2013-02-12 13:51:00,47.3,42.0,29.61,SSE,162,1.0,11.0,81,0.00,,,0.31,weatherlink.com 1.10,2013-02-12 12:51:00,
2013-02-12 14:06:00,46.2,41.0,29.61,SE,136,4.0,11.0,82,0.00,,,0.31,weatherlink.com 1.10,2013-02-12 13:06:00,
2013-02-12 14:21:00,46.1,41.0,29.61,ESE,108,2.0,11.0,82,0.00,,,0.31,weatherlink.com 1.10,2013-02-12 13:21:00,
2013-02-12 14:36:00,46.7,42.0,29.61,ESE,105,7.0,12.0,82,0.00,,,0.31,weatherlink.com 1.10,2013-02-12 13:36:00,
2013-02-12 14:51:00,46.7,42.0,29.62,SE,128,7.0,13.0,82,0.00,,,0.31,weatherlink.com 1.10,2013-02-12 13:51:00,
2013-02-12 15:06:00,46.7,42.0,29.62,ESE,113,2.0,12.0,82,0.00,,,0.31,weatherlink.com 1.10,2013-02-12 14:06:00,
2013-02-12 15:21:00,46.6,42.0,29.62,SE,140,6.0,12.0,83,0.00,,,0.31,weatherlink.com 1.10,2013-02-12 14:21:00,
2013-02-12 15:36:00,46.3,41.0,29.62,SE,131,5.0,10.0,82,0.00,,,0.31,weatherlink.com 1.10,2013-02-12 14:36:00,
2013-02-12 15:51:00,46.1,42.0,29.62,SSW,200,3.0,11.0,84,0.00,,,0.31,weatherlink.com 1.10,2013-02-12 14:51:00,
2013-02-12 16:06:00,46.2,42.0,29.63,East,100,2.0,11.0,85,0.00,,,0.31,weatherlink.com 1.10,2013-02-12 15:06:00,
2013-02-12 16:21:00,46.1,42.0,29.63,ESE,117,3.0,10.0,85,0.00,,,0.31,weatherlink.com 1.10,2013-02-12 15:21:00,
2013-02-12 16:36:00,45.5,42.0,29.63,SSE,155,4.0,10.0,86,0.00,,,0.31,weatherlink.com 1.10,2013-02-12 15:36:00,
2013-02-12 16:51:00,45.2,42.0,29.63,SE,136,6.0,7.0,87,0.00,,,0.31,weatherlink.com 1.10,2013-02-12 15:51:00,
2013-02-12 17:06:00,44.9,42.0,29.63,SE,143,2.0,8.0,88,0.00,,,0.31,weatherlink.com 1.10,2013-02-12 16:06:00,
2013-02-12 17:21:00,44.8,42.0,29.63,East,93,5.0,9.0,89,0.00,,,0.31,weatherlink.com 1.10,2013-02-12 16:21:00,
2013-02-12 17:36:00,44.1,41.0,29.63,ESE,114,0.0,5.0,90,0.00,,,0.31,weatherlink.com 1.10,2013-02-12 16:36:00,
2013-02-12 17:51:00,43.6,41.0,29.64,East,90,3.0,4.0,91,0.00,,,0.31,weatherlink.com 1.10,2013-02-12 16:51:00,
2013-02-12 18:06:00,43.3,41.0,29.64,East,93,1.0,4.0,91,0.00,,,0.31,weatherlink.com 1.10,2013-02-12 17:06:00,
2013-02-12 18:21:00,43.1,41.0,29.64,East,98,4.0,4.0,92,0.00,,,0.31,weatherlink.com 1.10,2013-02-12 17:21:00,
2013-02-12 18:36:00,42.9,41.0,29.64,ESE,108,1.0,2.0,92,0.00,,,0.31,weatherlink.com 1.10,2013-02-12 17:36:00,
2013-02-12 18:51:00,42.3,40.0,29.64,NE,55,1.0,2.0,92,0.00,,,0.31,weatherlink.com 1.10,2013-02-12 17:51:00,
2013-02-12 19:06:00,42.2,40.0,29.64,ENE,62,1.0,2.0,92,0.00,,,0.31,weatherlink.com 1.10,2013-02-12 18:06:00,
2013-02-12 19:21:00,41.9,40.0,29.64,NE,56,2.0,2.0,92,0.00,,,0.31,weatherlink.com 1.10,2013-02-12 18:21:00,
2013-02-12 19:36:00,41.7,40.0,29.64,NNE,27,3.0,4.0,92,0.00,,,0.31,weatherlink.com 1.10,2013-02-12 18:36:00,
2013-02-12 19:51:00,41.3,39.0,29.64,NNE,15,2.0,3.0,92,0.00,,,0.31,weatherlink.com 1.10,2013-02-12 18:51:00,
2013-02-12 20:06:00,40.9,39.0,29.64,North,8,3.0,4.0,93,0.00,,,0.31,weatherlink.com 1.10,2013-02-12 19:06:00,
2013-02-12 20:21:00,40.7,39.0,29.65,NNE,15,2.0,3.0,92,0.00,,,0.31,weatherlink.com 1.10,2013-02-12 19:21:00,
2013-02-12 20:36:00,40.4,38.0,29.65,North,8,2.0,3.0,92,0.00,,,0.31,weatherlink.com 1.10,2013-02-12 19:36:00,
2013-02-12 20:51:00,40.7,39.0,29.66,North,10,2.0,3.0,92,0.00,,,0.31,weatherlink.com 1.10,2013-02-12 19:51:00,
2013-02-12 21:06:00,40.7,39.0,29.66,North,6,3.0,3.0,92,0.00,,,0.31,weatherlink.com 1.10,2013-02-12 20:06:00,
2013-02-12 21:21:00,40.6,39.0,29.67,North,10,2.0,3.0,92,0.00,,,0.31,weatherlink.com 1.10,2013-02-12 20:21:00,
2013-02-12 21:36:00,41.4,39.0,29.68,NNE,20,3.0,4.0,90,0.00,,,0.31,weatherlink.com 1.10,2013-02-12 20:36:00,
2013-02-12 21:51:00,41.9,39.0,29.68,NNW,346,3.0,3.0,89,0.00,,,0.31,weatherlink.com 1.10,2013-02-12 20:51:00,
2013-02-12 22:06:00,41.7,38.0,29.68,North,5,4.0,4.0,88,0.00,,,0.31,weatherlink.com 1.10,2013-02-12 21:06:00,
2013-02-12 22:21:00,41.5,38.0,29.68,North,5,3.0,3.0,87,0.00,,,0.31,weatherlink.com 1.10,2013-02-12 21:21:00,
2013-02-12 22:36:00,41.9,39.0,29.68,North,8,3.0,5.0,88,0.00,,,0.31,weatherlink.com 1.10,2013-02-12 21:36:00,
2013-02-12 22:51:00,42.0,39.0,29.67,NNW,340,2.0,5.0,88,0.00,,,0.31,weatherlink.com 1.10,2013-02-12 21:51:00,
2013-02-12 23:06:00,42.1,39.0,29.68,NNW,333,4.0,5.0,88,0.00,,,0.31,weatherlink.com 1.10,2013-02-12 22:06:00,
2013-02-12 23:21:00,41.8,39.0,29.68,North,4,4.0,7.0,88,0.00,,,0.31,weatherlink.com 1.10,2013-02-12 22:21:00,
2013-02-12 23:36:00,41.8,39.0,29.68,NNW,329,4.0,6.0,88,0.00,,,0.31,weatherlink.com 1.10,2013-02-12 22:36:00,
2013-02-12 23:51:00,41.7,39.0,29.68,NNW,333,4.0,7.0,89,0.00,,,0.31,weatherlink.com 1.10,2013-02-12 22:51:00,